Time;durP1;ratioP1;P1;durP2;ratioP2;P2;SDS_P1;SDS_P2;PMS_P1;PMS_P2;Temp;Humidity;BMP_temperature;BMP_pressure;BME280_temperature;BME280_humidity;BME280_pressure;Samples;Min_cycle;Max_cycle;Signal;HPM_P1;HPM_P2
2021/12/10 00:00:54;;;;;;;32.33;12.60;;;4.00;99.90;;;;;;5073690;28;20072;-75
2021/12/10 00:03:28;;;;;;;35.13;12.88;;;4.00;99.90;;;;;;5072312;28;20052;-77
2021/12/10 00:05:58;;;;;;;44.20;13.82;;;4.00;99.90;;;;;;5071807;28;20052;-75
2021/12/10 00:08:26;;;;;;;39.55;14.45;;;4.00;99.90;;;;;;5073328;28;20044;-77
2021/12/10 00:10:55;;;;;;;32.53;14.20;;;4.00;99.90;;;;;;5071901;28;20496;-75
2021/12/10 00:13:21;;;;;;;32.05;12.85;;;4.00;99.90;;;;;;5073119;28;20048;-77
2021/12/10 00:15:47;;;;;;;37.67;15.75;;;4.00;99.90;;;;;;5073191;28;20535;-74
2021/12/10 00:18:16;;;;;;;32.80;11.68;;;4.00;99.90;;;;;;5072320;28;20136;-74
2021/12/10 00:20:43;;;;;;;34.22;13.93;;;4.00;99.90;;;;;;5072175;28;20142;-77
2021/12/10 00:23:14;;;;;;;33.05;13.63;;;3.90;99.90;;;;;;5073153;28;20496;-77
2021/12/10 00:25:46;;;;;;;32.80;14.27;;;4.00;99.90;;;;;;5073168;28;20044;-76
2021/12/10 00:28:19;;;;;;;45.05;21.75;;;4.00;99.90;;;;;;5071812;28;20052;-77
2021/12/10 00:31:04;;;;;;;42.40;22.20;;;4.00;99.90;;;;;;5071641;28;20053;-75
2021/12/10 00:33:38;;;;;;;48.67;20.98;;;3.90;99.90;;;;;;5073289;28;20101;-77
2021/12/10 00:36:08;;;;;;;44.42;21.95;;;4.00;99.90;;;;;;5072559;28;20116;-77
2021/12/10 00:38:35;;;;;;;46.55;23.40;;;3.90;99.90;;;;;;5072729;28;20056;-77
2021/12/10 00:41:04;;;;;;;44.20;22.55;;;4.00;99.90;;;;;;5072883;28;20060;-77
2021/12/10 00:43:30;;;;;;;47.97;20.20;;;3.90;99.90;;;;;;5073167;28;20046;-77
2021/12/10 00:45:56;;;;;;;50.40;23.50;;;4.00;99.90;;;;;;5072141;28;20033;-77
2021/12/10 00:48:22;;;;;;;47.45;23.17;;;3.90;99.90;;;;;;5071726;28;20120;-77
2021/12/10 00:50:51;;;;;;;44.28;21.30;;;3.90;99.90;;;;;;5071633;28;20071;-75
2021/12/10 00:53:18;;;;;;;44.25;20.50;;;4.00;99.90;;;;;;5071188;28;20106;-77
2021/12/10 00:55:44;;;;;;;43.75;21.85;;;4.00;99.90;;;;;;5073163;28;20044;-77
2021/12/10 00:58:11;;;;;;;43.17;21.73;;;3.90;99.90;;;;;;5077186;28;20259;-76
2021/12/10 01:00:41;;;;;;;41.88;21.80;;;4.00;99.90;;;;;;5075742;28;20064;-75
2021/12/10 01:03:09;;;;;;;47.95;23.88;;;4.00;99.90;;;;;;5075783;28;20127;-76
2021/12/10 01:05:38;;;;;;;42.80;21.63;;;4.00;99.90;;;;;;5075731;28;20138;-76
2021/12/10 01:08:04;;;;;;;48.65;23.30;;;4.40;99.90;;;;;;5075371;28;20377;-77
2021/12/10 01:10:42;;;;;;;52.67;23.98;;;4.00;99.90;;;;;;5076740;28;20391;-77
2021/12/10 01:13:14;;;;;;;45.65;22.80;;;4.00;99.90;;;;;;5075309;28;20048;-76
2021/12/10 01:16:09;;;;;;;45.72;21.52;;;4.00;99.90;;;;;;5076819;28;20072;-76
2021/12/10 01:24:34;;;;;;;45.60;21.15;;;4.30;99.90;;;;;;5075963;28;20049;-77
2021/12/10 01:27:10;;;;;;;39.88;20.42;;;4.00;99.90;;;;;;5076257;28;20119;-76
2021/12/10 01:29:41;;;;;;;50.75;20.63;;;4.00;99.90;;;;;;5076443;28;20052;-77
2021/12/10 01:32:09;;;;;;;44.05;21.05;;;4.00;99.90;;;;;;5076235;28;20545;-74
2021/12/10 01:34:35;;;;;;;48.08;22.17;;;4.00;99.90;;;;;;5076431;28;20386;-75
2021/12/10 01:37:02;;;;;;;46.00;21.98;;;4.00;99.90;;;;;;5075011;28;20170;-73
2021/12/10 01:39:33;;;;;;;41.78;21.98;;;4.00;99.90;;;;;;5075953;28;20075;-77
2021/12/10 01:42:13;;;;;;;50.55;23.00;;;4.00;99.90;;;;;;5076155;28;20048;-75
2021/12/10 01:44:43;;;;;;;47.60;22.40;;;4.00;99.90;;;;;;5076285;28;20426;-77
2021/12/10 01:47:10;;;;;;;47.17;21.15;;;4.10;99.90;;;;;;5057653;28;20061;-77
2021/12/10 01:49:37;;;;;;;49.20;22.08;;;4.10;99.90;;;;;;5076140;28;20044;-77
2021/12/10 01:52:04;;;;;;;48.20;21.92;;;4.10;99.90;;;;;;5074860;28;20555;-77
2021/12/10 01:54:35;;;;;;;42.17;23.00;;;4.10;99.90;;;;;;5076223;28;20048;-77
2021/12/10 01:57:02;;;;;;;40.60;19.67;;;4.10;99.90;;;;;;5075736;28;20050;-77
2021/12/10 01:59:30;;;;;;;48.22;20.52;;;4.00;99.90;;;;;;5074239;28;20090;-77
2021/12/10 02:01:59;;;;;;;40.13;18.50;;;4.10;99.90;;;;;;5075807;28;20127;-72
2021/12/10 02:04:27;;;;;;;39.97;19.13;;;4.10;99.90;;;;;;5075843;28;20085;-73
2021/12/10 02:06:54;;;;;;;40.40;17.40;;;4.10;99.90;;;;;;5075646;28;20480;-74
2021/12/10 02:09:20;;;;;;;38.42;18.38;;;4.10;99.90;;;;;;5075255;28;20098;-73
2021/12/10 02:11:46;;;;;;;36.60;17.98;;;4.10;99.90;;;;;;5075336;28;20527;-71
2021/12/10 02:14:13;;;;;;;37.42;17.23;;;4.10;99.90;;;;;;5074134;28;20515;-77
2021/12/10 02:16:39;;;;;;;34.17;17.55;;;4.10;99.90;;;;;;5075699;28;20060;-76
2021/12/10 02:19:07;;;;;;;34.38;18.23;;;4.10;99.90;;;;;;5075486;28;20516;-77
2021/12/10 02:21:34;;;;;;;34.58;17.52;;;4.10;99.90;;;;;;5075301;28;20070;-76
2021/12/10 02:24:02;;;;;;;37.28;18.67;;;4.10;99.90;;;;;;5075367;28;20666;-77
2021/12/10 02:26:36;;;;;;;32.30;17.15;;;4.10;99.90;;;;;;5057806;28;20392;-75
2021/12/10 02:29:03;;;;;;;35.10;18.98;;;4.10;99.90;;;;;;5073430;28;20044;-77
2021/12/10 02:31:29;;;;;;;33.47;16.85;;;4.10;99.90;;;;;;5074051;28;20541;-77
2021/12/10 02:33:55;;;;;;;35.28;17.40;;;4.10;99.90;;;;;;5074488;28;20052;-76
2021/12/10 02:36:23;;;;;;;34.88;17.45;;;4.10;99.90;;;;;;5073649;28;20501;-76
2021/12/10 02:38:51;;;;;;;35.30;16.55;;;4.10;99.90;;;;;;5074132;28;20106;-75
2021/12/10 02:41:21;;;;;;;37.10;17.95;;;4.10;99.90;;;;;;5073606;28;20062;-76
2021/12/10 02:43:47;;;;;;;35.65;16.58;;;4.10;99.90;;;;;;5074810;28;20040;-77
2021/12/10 02:46:14;;;;;;;40.45;16.98;;;4.10;99.90;;;;;;5073723;28;20102;-72
2021/12/10 02:48:40;;;;;;;32.22;15.88;;;4.10;99.90;;;;;;5075056;28;20036;-76
2021/12/10 02:51:07;;;;;;;34.70;16.58;;;4.10;99.90;;;;;;5073576;28;20577;-76
2021/12/10 02:53:41;;;;;;;35.53;18.42;;;4.10;99.90;;;;;;5073651;28;20051;-77
2021/12/10 02:56:07;;;;;;;39.65;18.08;;;4.10;99.90;;;;;;5073798;28;20049;-73
2021/12/10 02:58:33;;;;;;;40.60;18.60;;;4.10;99.90;;;;;;5073230;28;20051;-76
2021/12/10 03:01:11;;;;;;;36.25;17.80;;;4.10;99.90;;;;;;5074163;28;20471;-74
2021/12/10 03:03:39;;;;;;;31.90;15.50;;;4.10;99.90;;;;;;5074660;28;20477;-77
2021/12/10 03:06:10;;;;;;;29.95;14.98;;;4.20;99.90;;;;;;5073330;28;20562;-77
2021/12/10 03:08:39;;;;;;;32.55;16.13;;;4.10;99.90;;;;;;5073475;28;20036;-75
2021/12/10 03:11:05;;;;;;;39.40;18.23;;;4.10;99.90;;;;;;5073122;28;20048;-76
2021/12/10 03:13:31;;;;;;;34.65;17.63;;;4.00;99.90;;;;;;5074441;28;20488;-76
2021/12/10 03:15:59;;;;;;;36.55;17.13;;;4.20;99.90;;;;;;5073987;28;20045;-77
2021/12/10 03:18:25;;;;;;;33.17;15.27;;;4.10;99.90;;;;;;5073119;28;20048;-77
2021/12/10 03:20:51;;;;;;;31.83;16.13;;;4.10;99.90;;;;;;5071983;28;20055;-77
2021/12/10 03:23:17;;;;;;;26.80;13.32;;;4.10;99.90;;;;;;5074494;28;20377;-75
2021/12/10 03:25:43;;;;;;;26.25;12.82;;;4.10;99.90;;;;;;5072869;28;20125;-74
2021/12/10 03:28:09;;;;;;;28.50;12.63;;;4.30;99.90;;;;;;5074296;28;20107;-75
2021/12/10 03:30:40;;;;;;;27.73;13.13;;;4.00;99.90;;;;;;5073727;28;20538;-76
2021/12/10 03:33:07;;;;;;;32.53;14.65;;;4.00;99.90;;;;;;5073842;28;20417;-77
2021/12/10 03:35:41;;;;;;;29.67;14.88;;;4.10;99.90;;;;;;5072594;28;20056;-76
2021/12/10 03:38:08;;;;;;;30.90;15.27;;;4.00;99.90;;;;;;5072597;28;20136;-77
2021/12/10 03:40:34;;;;;;;31.58;15.25;;;4.20;99.90;;;;;;5073852;28;20055;-75
2021/12/10 03:43:00;;;;;;;29.63;15.63;;;4.10;99.90;;;;;;5073885;28;20044;-76
2021/12/10 03:45:31;;;;;;;28.33;14.60;;;4.10;99.90;;;;;;5073662;28;20488;-77
2021/12/10 03:47:58;;;;;;;30.27;14.18;;;4.30;99.90;;;;;;5072386;28;20044;-77
2021/12/10 03:50:30;;;;;;;29.80;13.85;;;4.70;99.90;;;;;;5073813;28;20052;-77
2021/12/10 03:52:56;;;;;;;28.13;13.50;;;4.10;99.90;;;;;;5073765;28;20047;-77
2021/12/10 03:55:23;;;;;;;32.42;14.07;;;4.10;99.90;;;;;;5072387;28;20127;-76
2021/12/10 03:57:51;;;;;;;29.90;14.93;;;4.00;99.90;;;;;;5073687;28;20480;-76
2021/12/10 04:00:19;;;;;;;32.72;15.52;;;4.10;99.90;;;;;;5072091;28;20059;-77
2021/12/10 04:02:45;;;;;;;34.47;15.60;;;5.40;99.90;;;;;;5073149;28;20067;-77
2021/12/10 04:05:11;;;;;;;34.67;15.52;;;4.10;99.90;;;;;;5073124;28;20060;-77
2021/12/10 04:07:38;;;;;;;39.20;16.60;;;4.10;99.90;;;;;;5073705;28;20484;-75
2021/12/10 04:10:08;;;;;;;35.30;15.98;;;4.10;99.90;;;;;;5073581;28;20457;-77
2021/12/10 04:12:34;;;;;;;31.70;14.98;;;4.10;99.90;;;;;;5072033;28;20396;-77
2021/12/10 04:15:00;;;;;;;35.00;16.05;;;4.10;99.90;;;;;;5071968;28;20048;-76
2021/12/10 04:17:26;;;;;;;34.45;16.55;;;4.10;99.90;;;;;;5073556;28;20067;-77
2021/12/10 04:19:52;;;;;;;30.45;16.35;;;4.10;99.90;;;;;;5071424;28;20068;-76
2021/12/10 04:22:20;;;;;;;32.63;16.35;;;4.00;99.90;;;;;;5072004;28;20087;-75
2021/12/10 04:24:46;;;;;;;33.67;16.15;;;4.10;99.90;;;;;;5071876;28;20135;-77
2021/12/10 04:27:13;;;;;;;29.45;15.93;;;4.00;99.90;;;;;;5073147;28;20071;-77
2021/12/10 04:29:39;;;;;;;36.97;16.92;;;4.10;99.90;;;;;;5071794;28;20056;-75
2021/12/10 04:32:06;;;;;;;34.22;15.50;;;4.10;99.90;;;;;;5055003;28;20056;-75
2021/12/10 04:34:33;;;;;;;37.15;15.60;;;4.00;99.90;;;;;;5072629;28;20067;-73
2021/12/10 04:37:03;;;;;;;38.92;17.10;;;4.00;99.90;;;;;;5071773;28;20054;-77
2021/12/10 04:39:29;;;;;;;37.92;18.83;;;4.00;99.90;;;;;;5073196;28;20498;-76
2021/12/10 04:41:57;;;;;;;33.53;19.00;;;4.00;99.90;;;;;;5071887;28;20106;-77
2021/12/10 04:44:23;;;;;;;35.97;19.02;;;4.10;99.90;;;;;;5072958;28;20120;-77
2021/12/10 04:46:48;;;;;;;37.58;18.45;;;4.00;99.90;;;;;;5073082;28;20049;-74
2021/12/10 04:49:15;;;;;;;38.70;18.52;;;4.00;99.90;;;;;;5072910;28;20044;-74
2021/12/10 04:51:53;;;;;;;39.42;18.77;;;4.00;99.90;;;;;;5071385;28;20128;-74
2021/12/10 04:54:21;;;;;;;41.60;18.73;;;3.90;99.90;;;;;;5072813;28;20048;-74
2021/12/10 04:56:49;;;;;;;34.00;17.63;;;3.90;99.90;;;;;;5072969;28;20048;-77
2021/12/10 04:59:17;;;;;;;41.60;18.88;;;3.90;99.90;;;;;;5072923;28;20066;-77
2021/12/10 05:01:45;;;;;;;39.00;18.15;;;3.90;99.90;;;;;;5071624;28;20457;-74
2021/12/10 05:04:12;;;;;;;37.42;17.52;;;3.80;99.90;;;;;;5054484;28;20132;-74
2021/12/10 05:06:39;;;;;;;35.45;18.00;;;3.80;99.90;;;;;;5072363;28;20115;-75
2021/12/10 05:09:07;;;;;;;34.72;16.08;;;3.80;99.90;;;;;;5071529;28;20071;-76
2021/12/10 05:11:33;;;;;;;33.30;16.95;;;3.70;99.90;;;;;;5072808;28;20438;-74
2021/12/10 05:14:00;;;;;;;33.65;17.17;;;3.70;99.90;;;;;;5071596;28;20496;-75
2021/12/10 05:16:27;;;;;;;32.28;15.43;;;3.70;99.90;;;;;;5072715;28;20082;-76
2021/12/10 05:18:58;;;;;;;29.60;16.58;;;3.60;99.90;;;;;;5071060;28;20049;-77
2021/12/10 05:21:25;;;;;;;34.35;16.63;;;3.60;99.90;;;;;;5072399;28;20050;-77
2021/12/10 05:23:51;;;;;;;31.42;16.27;;;3.50;99.90;;;;;;5072466;28;20105;-76
2021/12/10 05:26:17;;;;;;;26.52;15.05;;;3.50;99.90;;;;;;5071177;28;20131;-76
2021/12/10 05:28:43;;;;;;;31.92;16.10;;;3.40;99.90;;;;;;5072469;28;20051;-77
2021/12/10 05:31:09;;;;;;;32.22;16.98;;;3.40;99.90;;;;;;5071308;28;20051;-76
2021/12/10 05:33:34;;;;;;;29.00;15.20;;;3.40;99.90;;;;;;5071634;28;20109;-75
2021/12/10 05:36:02;;;;;;;32.75;15.82;;;3.40;99.90;;;;;;5071120;28;20053;-75
2021/12/10 05:38:31;;;;;;;31.88;16.75;;;3.40;99.90;;;;;;5072114;28;20056;-77
2021/12/10 05:40:58;;;;;;;26.52;14.77;;;3.40;99.90;;;;;;5072204;28;20051;-76
2021/12/10 05:43:24;;;;;;;30.20;15.15;;;3.40;99.90;;;;;;5072326;28;20044;-76
2021/12/10 05:45:51;;;;;;;32.47;15.55;;;3.30;99.90;;;;;;5075112;28;20059;-77
2021/12/10 05:48:17;;;;;;;26.45;15.23;;;3.30;99.90;;;;;;5074903;28;20057;-76
2021/12/10 05:50:43;;;;;;;27.00;14.93;;;3.30;99.90;;;;;;5076418;28;20072;-72
2021/12/10 05:53:09;;;;;;;25.85;14.48;;;3.30;99.90;;;;;;5074369;28;20044;-76
2021/12/10 05:55:36;;;;;;;23.67;13.27;;;3.30;99.90;;;;;;5075898;28;20036;-76
2021/12/10 05:58:07;;;;;;;22.67;12.20;;;3.20;99.90;;;;;;5076172;28;20147;-73
2021/12/10 06:00:38;;;;;;;23.90;13.07;;;3.20;99.90;;;;;;5058707;28;20048;-74
2021/12/10 06:03:04;;;;;;;25.30;13.00;;;3.20;99.90;;;;;;5075849;28;20053;-76
2021/12/10 06:05:31;;;;;;;23.55;12.90;;;3.20;99.90;;;;;;5075961;28;20499;-75
2021/12/10 06:07:58;;;;;;;25.98;13.13;;;3.10;99.90;;;;;;5075811;28;20053;-76
2021/12/10 06:10:23;;;;;;;22.42;11.52;;;3.10;99.90;;;;;;5075240;28;20043;-74
2021/12/10 06:12:50;;;;;;;21.30;11.38;;;3.00;99.90;;;;;;5074488;28;20040;-76
2021/12/10 06:15:18;;;;;;;21.05;10.75;;;3.00;99.90;;;;;;5075765;28;20036;-76
2021/12/10 06:17:45;;;;;;;25.08;11.15;;;2.90;99.90;;;;;;5074552;28;20048;-77
2021/12/10 06:20:15;;;;;;;20.85;10.38;;;2.80;99.90;;;;;;5074188;28;20097;-76
2021/12/10 06:22:41;;;;;;;18.85;9.98;;;2.80;99.90;;;;;;5075477;28;20576;-76
2021/12/10 06:25:08;;;;;;;20.52;10.23;;;2.70;99.90;;;;;;5074854;28;20128;-76
2021/12/10 06:27:34;;;;;;;21.10;11.35;;;2.70;99.90;;;;;;5074762;28;20097;-76
2021/12/10 06:30:01;;;;;;;19.35;10.02;;;2.70;99.90;;;;;;5075251;28;20057;-73
2021/12/10 06:32:27;;;;;;;22.17;10.35;;;2.60;99.90;;;;;;5075454;28;20044;-76
2021/12/10 06:34:54;;;;;;;19.80;9.57;;;2.60;99.90;;;;;;5075136;28;20451;-76
2021/12/10 06:37:20;;;;;;;16.73;8.10;;;2.50;99.90;;;;;;5075239;28;20120;-72
2021/12/10 06:39:45;;;;;;;18.13;8.68;;;2.50;99.90;;;;;;5074039;28;20434;-76
2021/12/10 06:42:11;;;;;;;19.10;9.07;;;2.40;99.90;;;;;;5074234;28;20079;-73
2021/12/10 06:44:37;;;;;;;17.63;9.25;;;3.00;99.90;;;;;;5075047;28;20043;-77
2021/12/10 06:47:05;;;;;;;15.73;7.90;;;2.40;99.90;;;;;;5075139;28;20448;-74
2021/12/10 06:49:32;;;;;;;12.73;6.50;;;2.30;99.90;;;;;;5075017;28;20048;-76
2021/12/10 06:52:00;;;;;;;14.93;6.20;;;2.30;99.90;;;;;;5073734;28;20119;-76
2021/12/10 06:54:26;;;;;;;13.70;5.80;;;2.30;99.90;;;;;;5073055;28;20060;-72
2021/12/10 06:56:53;;;;;;;12.45;4.75;;;2.20;99.90;;;;;;5074246;28;20051;-76
2021/12/10 06:59:18;;;;;;;17.02;5.53;;;2.20;99.90;;;;;;5074742;28;20044;-75
2021/12/10 07:01:44;;;;;;;12.50;4.75;;;2.20;99.90;;;;;;5073153;28;20408;-74
2021/12/10 07:04:12;;;;;;;12.35;4.70;;;2.20;99.90;;;;;;5073654;28;20056;-73
2021/12/10 07:06:39;;;;;;;13.50;4.60;;;2.10;99.90;;;;;;5074509;28;20052;-74
2021/12/10 07:09:29;;;;;;;17.20;6.07;;;2.80;99.90;;;;;;5075138;28;20036;-74
2021/12/10 07:11:55;;;;;;;14.40;6.13;;;0.90;99.90;;;;;;5056314;28;20041;-74
2021/12/10 07:14:21;;;;;;;14.95;6.50;;;2.10;99.90;;;;;;5074289;28;20052;-74
2021/12/10 07:16:48;;;;;;;16.50;6.07;;;2.00;99.90;;;;;;5073351;28;20063;-76
2021/12/10 07:19:14;;;;;;;14.52;5.07;;;2.00;99.90;;;;;;5074387;28;20064;-74
2021/12/10 07:21:40;;;;;;;11.80;5.00;;;2.00;99.90;;;;;;5074468;28;20573;-75
2021/12/10 07:24:10;;;;;;;14.45;5.30;;;2.00;99.90;;;;;;5073989;28;20044;-75
2021/12/10 07:26:37;;;;;;;16.63;5.72;;;1.90;99.90;;;;;;5074363;28;20052;-73
2021/12/10 07:29:05;;;;;;;12.65;5.43;;;1.90;99.90;;;;;;5073909;28;20049;-75
2021/12/10 07:31:32;;;;;;;12.85;5.28;;;1.90;99.90;;;;;;5074058;28;20049;-74
2021/12/10 07:33:57;;;;;;;14.15;6.07;;;1.90;99.90;;;;;;5074051;28;20111;-75
2021/12/10 07:36:24;;;;;;;15.55;5.80;;;1.90;99.90;;;;;;5073988;28;20075;-73
2021/12/10 07:38:50;;;;;;;13.80;6.55;;;1.80;99.90;;;;;;5073847;28;20040;-74
2021/12/10 07:41:16;;;;;;;16.40;7.97;;;1.80;99.90;;;;;;5072718;28;20048;-75
2021/12/10 07:43:43;;;;;;;17.00;7.50;;;1.80;99.90;;;;;;5073592;28;20040;-71
2021/12/10 07:46:12;;;;;;;16.77;8.32;;;1.90;99.90;;;;;;5073896;28;20074;-76
2021/12/10 07:48:38;;;;;;;19.27;8.48;;;1.80;99.90;;;;;;5073865;28;20047;-73
2021/12/10 07:51:10;;;;;;;15.15;6.95;;;1.80;99.90;;;;;;5073783;28;20044;-75
2021/12/10 07:53:37;;;;;;;18.90;7.78;;;1.90;99.90;;;;;;5073767;28;20048;-76
2021/12/10 07:56:05;;;;;;;15.05;7.45;;;1.90;99.90;;;;;;5073789;28;20408;-72
2021/12/10 07:58:32;;;;;;;19.70;8.65;;;1.90;99.90;;;;;;5073776;28;20040;-76
2021/12/10 08:00:59;;;;;;;17.88;9.27;;;2.60;99.90;;;;;;5073240;28;20067;-75
2021/12/10 08:03:25;;;;;;;16.67;8.48;;;1.90;99.90;;;;;;5073583;28;20043;-75
2021/12/10 08:05:52;;;;;;;17.70;8.93;;;1.90;99.90;;;;;;5072717;28;20498;-75
2021/12/10 08:08:18;;;;;;;18.30;8.18;;;1.90;99.90;;;;;;5072309;28;20535;-75
2021/12/10 08:10:46;;;;;;;20.85;8.35;;;1.90;99.90;;;;;;5069458;28;20044;-74
2021/12/10 08:13:13;;;;;;;14.27;7.25;;;2.60;99.90;;;;;;5067564;28;20095;-70
2021/12/10 08:15:39;;;;;;;18.13;8.55;;;2.50;99.90;;;;;;5072017;28;20036;-73
2021/12/10 08:18:06;;;;;;;17.88;8.30;;;1.90;99.90;;;;;;5072710;28;20056;-77
2021/12/10 08:20:33;;;;;;;19.85;8.43;;;1.90;99.90;;;;;;5072026;28;20044;-75
2021/12/10 08:22:59;;;;;;;16.85;8.40;;;1.90;99.90;;;;;;5054950;28;20127;-75
2021/12/10 08:25:27;;;;;;;19.95;8.63;;;1.90;99.90;;;;;;5073262;28;20098;-75
2021/12/10 08:27:55;;;;;;;19.83;8.93;;;2.00;99.90;;;;;;5072709;28;20054;-75
2021/12/10 08:30:22;;;;;;;17.42;8.32;;;2.00;99.90;;;;;;5053922;28;20491;-73
2021/12/10 08:32:49;;;;;;;16.88;8.10;;;2.00;99.90;;;;;;5053927;28;20512;-76
2021/12/10 08:35:23;;;;;;;15.20;8.45;;;2.00;99.90;;;;;;5054247;28;20065;-74
2021/12/10 08:37:50;;;;;;;17.08;7.90;;;2.60;99.90;;;;;;5054497;28;20060;-76
2021/12/10 08:40:28;;;;;;;16.73;8.55;;;2.00;99.90;;;;;;5071899;28;20071;-74
2021/12/10 08:42:54;;;;;;;18.27;9.30;;;2.00;99.90;;;;;;5072539;28;20076;-74
2021/12/10 08:45:21;;;;;;;17.95;9.02;;;2.00;99.90;;;;;;5071722;28;20072;-74
2021/12/10 08:47:49;;;;;;;16.40;8.32;;;2.00;99.90;;;;;;5071772;28;20515;-76
2021/12/10 08:50:22;;;;;;;16.73;8.38;;;2.00;99.90;;;;;;5054029;28;20052;-71
2021/12/10 08:52:49;;;;;;;17.73;8.30;;;2.00;99.90;;;;;;5072426;28;20177;-76
2021/12/10 08:55:17;;;;;;;16.77;8.63;;;2.00;99.90;;;;;;5072049;28;20083;-74
2021/12/10 08:57:44;;;;;;;16.35;8.52;;;2.20;99.90;;;;;;5072283;28;20075;-75
2021/12/10 09:00:10;;;;;;;16.35;8.00;;;2.10;99.90;;;;;;5072173;28;20036;-75
2021/12/10 09:02:37;;;;;;;17.75;9.02;;;2.10;99.90;;;;;;5070962;28;20456;-76
2021/12/10 09:05:08;;;;;;;16.92;8.85;;;2.10;99.90;;;;;;5071529;28;20119;-69
2021/12/10 09:07:35;;;;;;;18.58;9.02;;;2.20;99.90;;;;;;5071296;28;20036;-72
2021/12/10 09:10:01;;;;;;;17.90;8.30;;;2.20;99.90;;;;;;5071605;28;20411;-70
2021/12/10 09:12:28;;;;;;;16.75;8.00;;;2.30;99.90;;;;;;5071461;28;20033;-73
2021/12/10 09:14:59;;;;;;;15.55;7.78;;;2.30;99.90;;;;;;5071837;28;20136;-73
2021/12/10 09:17:27;;;;;;;19.33;8.50;;;2.30;99.90;;;;;;5071625;28;20056;-73
2021/12/10 09:19:55;;;;;;;16.77;7.72;;;2.30;99.90;;;;;;5075272;28;20278;-74
2021/12/10 09:22:23;;;;;;;19.55;7.75;;;2.40;99.90;;;;;;5074939;28;20041;-72
2021/12/10 09:24:51;;;;;;;16.00;8.05;;;2.40;99.90;;;;;;5075485;28;20119;-71
2021/12/10 09:27:17;;;;;;;16.00;7.38;;;2.40;99.90;;;;;;5073738;28;20102;-71
2021/12/10 09:29:46;;;;;;;17.20;8.75;;;2.50;99.90;;;;;;5074884;28;20431;-74
2021/12/10 09:32:15;;;;;;;16.42;8.35;;;2.50;99.90;;;;;;5075552;28;20048;-73
2021/12/10 09:34:40;;;;;;;16.55;7.55;;;2.60;99.90;;;;;;5073450;28;20056;-72
2021/12/10 09:37:07;;;;;;;17.77;8.85;;;2.60;99.90;;;;;;5074090;28;20061;-72
2021/12/10 09:39:34;;;;;;;16.10;8.05;;;2.60;99.90;;;;;;5073572;28;20084;-74
2021/12/10 09:42:00;;;;;;;13.98;7.18;;;2.70;99.90;;;;;;5075435;28;20076;-73
2021/12/10 09:44:26;;;;;;;14.95;7.28;;;2.70;99.90;;;;;;5073990;28;20041;-74
2021/12/10 09:46:54;;;;;;;14.48;7.32;;;2.70;99.90;;;;;;5075456;28;20076;-74
2021/12/10 09:49:24;;;;;;;15.70;8.00;;;2.80;99.90;;;;;;5073307;28;20059;-74
2021/12/10 09:51:58;;;;;;;15.00;7.10;;;2.80;99.90;;;;;;5074996;28;20162;-73
2021/12/10 09:54:26;;;;;;;14.30;7.45;;;2.90;99.90;;;;;;5074895;28;20048;-72
2021/12/10 09:57:06;;;;;;;14.38;7.28;;;2.90;99.90;;;;;;5074187;28;20052;-74
2021/12/10 09:59:35;;;;;;;12.75;6.68;;;3.00;99.90;;;;;;5074592;28;20055;-74
2021/12/10 10:02:01;;;;;;;15.27;7.35;;;3.70;99.90;;;;;;5074981;28;20056;-74
2021/12/10 10:04:27;;;;;;;13.60;7.25;;;3.60;99.90;;;;;;5074780;28;20040;-74
2021/12/10 10:07:01;;;;;;;16.73;7.07;;;3.10;99.90;;;;;;5074643;28;20129;-74
2021/12/10 10:09:28;;;;;;;16.13;7.30;;;3.20;99.90;;;;;;5073129;28;20555;-74
2021/12/10 10:12:01;;;;;;;15.52;6.63;;;3.20;99.90;;;;;;5074890;28;20051;-73
2021/12/10 10:14:28;;;;;;;13.73;6.65;;;3.20;99.90;;;;;;5074472;28;20048;-74
2021/12/10 10:16:54;;;;;;;13.70;6.82;;;3.30;99.90;;;;;;5074906;28;20404;-74
2021/12/10 10:19:21;;;;;;;13.10;6.28;;;3.40;99.90;;;;;;5074175;28;20051;-72
2021/12/10 10:21:53;;;;;;;14.75;6.97;;;4.00;99.90;;;;;;5074479;28;20051;-75
2021/12/10 10:24:20;;;;;;;;;;;4.10;99.90;;;;;;5073493;28;20041;-75
2021/12/10 10:26:54;;;;;;;14.63;6.68;;;3.50;99.90;;;;;;5074548;28;19916;-76
2021/12/10 10:29:22;;;;;;;15.60;6.78;;;3.60;99.90;;;;;;5073485;28;20124;-78
2021/12/10 10:31:52;;;;;;;12.32;6.03;;;3.60;99.90;;;;;;5073383;28;20044;-78
2021/12/10 10:34:21;;;;;;;15.10;6.35;;;3.70;99.90;;;;;;5074377;28;20075;-78
2021/12/10 10:36:47;;;;;;;14.45;6.65;;;3.70;99.90;;;;;;5074428;28;20063;-74
2021/12/10 10:39:19;;;;;;;12.93;6.50;;;3.80;99.90;;;;;;5072405;28;20114;-74
2021/12/10 10:41:47;;;;;;;;;;;3.80;99.90;;;;;;5074781;28;20102;-74
2021/12/10 10:44:17;;;;;;;12.48;6.20;;;3.80;99.90;;;;;;5073376;28;20330;-75
2021/12/10 10:46:43;;;;;;;14.02;5.88;;;3.90;99.90;;;;;;5074344;28;20059;-75
2021/12/10 10:49:09;;;;;;;13.50;6.03;;;3.90;99.90;;;;;;5074071;28;20052;-72
2021/12/10 10:51:38;;;;;;;13.25;6.18;;;4.50;99.90;;;;;;5072179;28;20053;-73
2021/12/10 10:54:08;;;;;;;12.20;6.03;;;3.90;99.90;;;;;;5073659;28;20044;-74
2021/12/10 10:56:45;;;;;;;13.27;5.93;;;4.00;99.90;;;;;;5073626;28;20082;-74
2021/12/10 10:59:17;;;;;;;12.38;5.88;;;4.00;99.90;;;;;;5073921;28;20127;-76
2021/12/10 11:01:57;;;;;;;12.95;5.63;;;4.50;99.90;;;;;;5073991;28;20099;-75
2021/12/10 11:04:38;;;;;;;12.07;5.90;;;4.10;99.90;;;;;;5073683;28;20047;-74
2021/12/10 11:07:06;;;;;;;11.70;5.18;;;4.10;99.90;;;;;;5073651;28;20048;-74
2021/12/10 11:09:34;;;;;;;11.43;5.82;;;4.10;99.90;;;;;;5071671;28;20071;-74
2021/12/10 11:12:07;;;;;;;10.82;5.10;;;4.20;99.90;;;;;;5073888;28;20052;-72
2021/12/10 11:14:44;;;;;;;11.85;5.65;;;4.30;99.90;;;;;;5073405;28;20498;-74
2021/12/10 11:17:21;;;;;;;11.95;5.57;;;4.20;99.90;;;;;;5073709;28;20066;-71
2021/12/10 11:19:53;;;;;;;13.82;5.40;;;4.30;99.90;;;;;;5071972;28;20400;-74
2021/12/10 11:22:22;;;;;;;12.45;5.45;;;4.70;99.90;;;;;;5073301;28;20416;-73
2021/12/10 11:24:52;;;;;;;13.15;5.70;;;4.30;99.90;;;;;;5072372;28;20067;-73
2021/12/10 11:27:18;;;;;;;12.43;5.65;;;4.40;99.90;;;;;;5072957;28;20036;-72
2021/12/10 11:30:02;;;;;;;12.07;5.50;;;4.40;99.90;;;;;;5073257;28;20044;-74
2021/12/10 11:32:50;;;;;;;12.43;5.72;;;4.50;99.90;;;;;;5073055;28;20492;-71
2021/12/10 11:35:24;;;;;;;12.43;5.68;;;4.50;99.90;;;;;;5072692;28;20084;-73
2021/12/10 11:38:00;;;;;;;11.63;5.20;;;4.60;99.90;;;;;;5072002;28;20044;-74
2021/12/10 11:40:46;;;;;;;12.40;5.68;;;4.60;99.90;;;;;;5070840;28;20125;-74
2021/12/10 11:48:32;;;;;;;11.23;5.38;;;4.70;99.90;;;;;;5072866;28;20102;-74
2021/12/10 11:51:00;;;;;;;11.65;5.35;;;4.70;99.90;;;;;;5072873;28;20051;-73
2021/12/10 11:53:36;;;;;;;15.05;5.22;;;4.80;99.90;;;;;;5072587;28;20116;-76
2021/12/10 11:56:11;;;;;;;11.43;4.93;;;4.80;99.90;;;;;;5072003;28;20059;-74
2021/12/10 11:58:37;;;;;;;11.20;5.55;;;4.80;99.90;;;;;;5072231;28;20476;-75
2021/12/10 12:01:04;;;;;;;11.27;4.80;;;4.90;99.90;;;;;;5072795;28;20044;-75
2021/12/10 12:03:32;;;;;;;13.45;5.18;;;4.90;99.90;;;;;;5072542;28;20076;-76
2021/12/10 12:05:59;;;;;;;10.40;4.80;;;5.00;99.90;;;;;;5071550;28;20049;-75
2021/12/10 12:08:25;;;;;;;11.25;4.50;;;5.00;99.90;;;;;;5072677;28;20075;-76
2021/12/10 12:10:55;;;;;;;11.02;4.95;;;5.10;99.90;;;;;;5072724;28;20488;-76
2021/12/10 12:13:29;;;;;;;13.45;4.97;;;5.10;99.90;;;;;;5072049;28;20044;-74
2021/12/10 12:16:00;;;;;;;15.75;5.60;;;5.10;99.90;;;;;;5072895;28;20044;-76
2021/12/10 12:18:29;;;;;;;11.98;5.00;;;5.00;99.90;;;;;;5072339;28;20096;-77
2021/12/10 12:26:52;;;;;;;9.38;3.90;;;5.00;99.90;;;;;;5071801;28;20412;-75
2021/12/10 12:29:18;;;;;;;10.73;4.32;;;5.10;99.90;;;;;;5073316;28;20036;-76
2021/12/10 12:31:47;;;;;;;10.45;4.60;;;5.10;99.90;;;;;;5072591;28;20381;-78
2021/12/10 12:34:24;;;;;;;10.50;4.47;;;5.20;99.90;;;;;;5072108;28;20514;-75
2021/12/10 12:36:50;;;;;;;9.82;4.68;;;5.10;99.90;;;;;;5048708;28;20056;-75
2021/12/10 12:39:30;;;;;;;13.88;5.03;;;5.20;99.90;;;;;;5050771;28;20061;-73
2021/12/10 12:41:58;;;;;;;10.82;4.55;;;5.20;99.90;;;;;;5052354;28;20480;-75
2021/12/10 12:44:30;;;;;;;11.30;5.20;;;5.50;99.90;;;;;;5051567;28;20119;-75
2021/12/10 12:46:57;;;;;;;12.40;4.72;;;5.10;99.90;;;;;;5052375;28;20409;-77
2021/12/10 12:49:24;;;;;;;11.38;4.35;;;5.10;99.90;;;;;;5051655;28;20045;-75
2021/12/10 12:52:23;;;;;;;11.57;4.80;;;5.00;99.90;;;;;;5050980;28;20041;-77
2021/12/10 12:55:25;;;;;;;12.10;5.30;;;5.30;99.90;;;;;;5033352;28;20064;-75
2021/12/10 12:58:15;;;;;;;12.73;5.28;;;5.00;99.90;;;;;;5050023;28;20076;-75
2021/12/10 13:00:57;;;;;;;14.82;5.20;;;5.00;99.90;;;;;;5048699;28;20136;-76
2021/12/10 13:03:44;;;;;;;14.63;5.45;;;5.00;99.90;;;;;;5049595;28;20187;-75
2021/12/10 13:06:15;;;;;;;13.80;5.60;;;5.00;99.90;;;;;;5050190;28;20057;-78
2021/12/10 13:08:43;;;;;;;13.25;5.47;;;5.00;99.90;;;;;;5033183;28;20045;-69